createdAt,value
2022-09-12T00:12:23.277Z,94277.00
2022-09-12T00:16:38.264Z,94289.00
2022-09-12T00:20:46.629Z,94290.00
2022-09-12T00:24:54.838Z,94266.00
2022-09-12T00:33:18.369Z,94261.00
2022-09-12T00:46:50.513Z,94265.00
2022-09-12T00:55:29.449Z,94238.00
2022-09-12T01:04:25.932Z,94236.00
2022-09-12T01:13:01.218Z,94236.00
2022-09-12T01:17:09.807Z,94228.00
2022-09-12T01:26:47.117Z,94245.00
2022-09-12T01:31:33.515Z,94242.00
2022-09-12T01:36:20.057Z,94242.00
2022-09-12T01:41:19.098Z,94217.00
2022-09-12T01:45:34.244Z,94225.00
2022-09-12T01:50:04.947Z,94219.00
2022-09-12T01:59:20.032Z,94243.00
2022-09-12T02:22:09.032Z,94210.00
2022-09-12T02:40:20.928Z,94190.00
2022-09-12T02:44:29.244Z,94200.00
2022-09-12T02:57:30.361Z,94185.00
2022-09-12T03:02:08.774Z,94201.00
2022-09-12T03:11:10.597Z,94198.00
2022-09-12T03:51:32.053Z,94176.00
2022-09-12T03:55:38.792Z,94171.00
2022-09-12T03:59:42.961Z,94195.00
2022-09-12T04:22:17.937Z,94184.00
2022-09-12T04:31:02.012Z,94216.00
2022-09-12T04:35:13.945Z,94192.00
2022-09-12T04:53:31.152Z,94188.00
2022-09-12T04:57:38.575Z,94183.00
2022-09-12T05:01:43.739Z,94208.00
2022-09-12T05:05:51.297Z,94186.00
2022-09-12T05:09:58.897Z,94210.00
2022-09-12T05:22:46.090Z,94214.00
2022-09-12T06:17:27.489Z,94239.00
2022-09-12T06:31:49.196Z,94244.00
2022-09-12T06:35:56.953Z,94237.00
2022-09-12T06:45:38.257Z,94246.00
2022-09-12T06:55:48.460Z,94237.00
2022-09-12T06:59:50.901Z,94235.00
2022-09-12T07:03:56.136Z,94248.00
2022-09-12T07:07:58.182Z,94250.00
2022-09-12T07:12:04.625Z,94250.00
2022-09-12T07:16:06.671Z,94260.00
2022-09-12T07:20:09.274Z,94263.00
2022-09-12T07:24:11.848Z,94262.00
2022-09-12T07:28:14.416Z,94268.00
2022-09-12T07:32:16.876Z,94266.00
2022-09-12T07:36:32.200Z,94276.00
2022-09-12T07:45:00.776Z,94250.00
2022-09-12T07:49:06.094Z,94257.00
2022-09-12T07:53:29.110Z,94263.00
2022-09-12T07:57:42.611Z,94273.00
2022-09-12T08:01:46.152Z,94273.00
2022-09-12T08:06:03.672Z,94271.00
2022-09-12T08:10:09.882Z,94284.00
2022-09-12T08:14:18.332Z,94286.00
2022-09-12T08:18:20.738Z,94274.00
2022-09-12T08:22:29.968Z,94270.00
2022-09-12T08:26:37.765Z,94272.00
2022-09-12T08:30:43.700Z,94279.00
2022-09-12T08:34:49.522Z,94288.00
2022-09-12T08:39:00.529Z,94286.00
2022-09-12T09:06:24.574Z,94293.00
2022-09-12T09:11:06.182Z,94289.00
2022-09-12T09:20:28.538Z,94280.00
2022-09-12T09:24:43.008Z,94280.00
2022-09-12T09:29:18.525Z,94280.00
2022-09-12T09:33:27.985Z,94284.00
2022-09-12T09:42:13.344Z,94278.00
2022-09-12T09:55:05.315Z,94300.00
2022-09-12T09:59:36.965Z,94272.00
2022-09-12T10:03:43.731Z,94271.00
2022-09-12T10:08:01.040Z,94269.00
2022-09-12T10:12:29.016Z,94292.00
2022-09-12T10:16:57.384Z,94276.00
2022-09-12T10:29:52.844Z,94278.00
2022-09-12T11:06:09.682Z,94249.00
2022-09-12T11:10:45.254Z,94259.00
2022-09-12T11:19:49.299Z,94256.00
2022-09-12T11:38:26.675Z,94262.00
2022-09-12T11:47:15.118Z,94244.00
2022-09-12T11:51:56.877Z,94248.00
2022-09-12T12:06:59.960Z,94233.00
2022-09-12T12:15:31.269Z,94243.00
2022-09-12T12:19:39.210Z,94243.00
2022-09-12T12:24:11.813Z,94235.00
2022-09-12T12:28:43.451Z,94244.00
2022-09-12T12:32:47.415Z,94245.00
2022-09-12T12:36:59.182Z,94228.00
2022-09-12T12:41:20.955Z,94238.00
2022-09-12T12:45:29.536Z,94222.00
2022-09-12T12:49:36.392Z,94214.00
2022-09-12T12:53:42.642Z,94214.00
2022-09-12T12:57:56.080Z,94220.00
2022-09-12T13:02:00.614Z,94214.00
2022-09-12T13:06:10.535Z,94226.00
2022-09-12T13:10:24.376Z,94224.00
2022-09-12T13:15:00.356Z,94202.00
2022-09-12T13:19:23.497Z,94205.00
2022-09-12T13:28:13.102Z,94210.00
2022-09-12T13:37:12.848Z,94192.00
2022-09-12T13:41:44.174Z,94191.00
2022-09-12T13:45:49.324Z,94188.00
2022-09-12T14:09:39.915Z,94177.00
2022-09-12T14:18:12.503Z,94176.00
2022-09-12T14:26:44.005Z,94167.00
2022-09-12T14:35:46.400Z,94179.00
2022-09-12T14:58:21.077Z,94180.00
2022-09-12T15:02:49.234Z,94156.00
2022-09-12T15:06:55.440Z,94161.00
2022-09-12T15:11:00.929Z,94165.00
2022-09-12T15:15:27.644Z,94166.00
2022-09-12T15:19:37.350Z,94163.00
2022-09-12T15:23:57.417Z,94157.00
2022-09-12T15:32:33.697Z,94156.00
2022-09-12T15:36:36.179Z,94166.00
2022-09-12T15:40:43.459Z,94179.00
2022-09-12T15:44:46.999Z,94166.00
2022-09-12T15:48:50.772Z,94166.00
2022-09-12T15:52:53.401Z,94179.00
2022-09-12T15:56:56.267Z,94167.00
2022-09-12T16:00:59.780Z,94169.00
2022-09-12T16:05:22.164Z,94164.00
2022-09-12T16:09:26.286Z,94168.00
2022-09-12T16:13:28.650Z,94167.00
2022-09-12T16:17:31.012Z,94168.00
2022-09-12T16:21:34.188Z,94172.00
2022-09-12T16:25:39.972Z,94160.00
2022-09-12T16:29:42.521Z,94164.00
2022-09-12T16:33:44.859Z,94162.00
2022-09-12T16:37:47.126Z,94155.00
2022-09-12T16:41:49.645Z,94147.00
2022-09-12T16:46:01.252Z,94172.00
2022-09-12T16:50:05.995Z,94164.00
2022-09-12T16:54:09.066Z,94173.00
2022-09-12T16:58:23.675Z,94162.00
2022-09-12T17:02:40.102Z,94156.00
2022-09-12T17:06:45.977Z,94161.00
2022-09-12T17:10:48.624Z,94155.00
2022-09-12T17:14:52.769Z,94157.00
2022-09-12T17:18:56.599Z,94153.00
2022-09-12T17:22:58.822Z,94155.00
2022-09-12T17:27:02.667Z,94150.00
2022-09-12T17:31:13.761Z,94145.00
2022-09-12T17:44:23.502Z,94158.00
2022-09-12T17:48:34.711Z,94172.00
2022-09-12T18:01:45.309Z,94176.00
2022-09-12T18:50:58.436Z,94172.00
2022-09-12T18:55:24.773Z,94171.00
2022-09-12T20:22:08.982Z,94169.00
2022-09-12T20:48:13.055Z,94145.00
2022-09-12T20:52:15.648Z,94138.00
2022-09-12T20:56:21.910Z,94151.00
2022-09-12T21:00:34.544Z,94130.00
2022-09-12T21:04:41.436Z,94146.00
2022-09-12T21:52:00.110Z,94135.00
2022-09-12T21:56:08.536Z,94143.00
2022-09-12T22:00:18.268Z,94119.00
2022-09-12T22:04:20.832Z,94117.00
2022-09-12T22:08:23.420Z,94136.00
2022-09-12T22:12:29.971Z,94121.00
2022-09-12T22:16:37.405Z,94112.00
2022-09-12T22:20:40.309Z,94118.00
2022-09-12T22:24:45.558Z,94107.00
2022-09-12T22:28:48.506Z,94095.00
2022-09-12T22:32:54.443Z,94109.00
2022-09-12T22:37:02.790Z,94093.00
2022-09-12T22:41:17.695Z,94097.00
2022-09-12T22:45:20.194Z,94093.00
2022-09-12T22:49:22.786Z,94094.00
2022-09-12T22:53:25.428Z,94096.00
2022-09-12T22:57:30.239Z,94099.00
2022-09-12T23:01:50.837Z,94084.00
2022-09-12T23:05:55.460Z,94099.00
2022-09-12T23:09:58.713Z,94077.00
2022-09-12T23:14:09.808Z,94075.00
2022-09-12T23:18:33.387Z,94068.00
2022-09-12T23:22:44.820Z,94063.00
2022-09-12T23:26:47.605Z,94074.00
2022-09-12T23:30:55.779Z,94065.00
2022-09-12T23:34:58.625Z,94078.00
2022-09-12T23:39:01.333Z,94072.00
2022-09-12T23:43:03.999Z,94052.00
2022-09-12T23:47:06.759Z,94059.00
2022-09-12T23:51:09.940Z,94067.00
2022-09-12T23:55:12.330Z,94061.00
2022-09-12T23:59:14.499Z,94065.00
